Time;durP1;ratioP1;P1;durP2;ratioP2;P2;SDS_P1;SDS_P2;PMS_P1;PMS_P2;Temp;Humidity;BMP_temperature;BMP_pressure;BME280_temperature;BME280_humidity;BME280_pressure;Samples;Min_cycle;Max_cycle;Signal;HPM_P1;HPM_P2
2022/09/01 00:00:27;;;;;;;;;;;;;;;;;;4994902;28;19925;-78
2022/09/01 00:02:53;;;;;;;;;;;;;;;;;;4993895;28;19957;-77
2022/09/01 00:05:18;;;;;;;;;;;;;;;;;;4994382;28;19957;-78
2022/09/01 00:07:44;;;;;;;;;;;;;;;;;;4977455;28;19937;-78
2022/09/01 00:10:09;;;;;;;;;;;;;;;;;;4993590;28;19914;-78
2022/09/01 00:12:34;;;;;;;;;;;;;;;;;;4994327;28;19918;-77
2022/09/01 00:15:00;;;;;;;;;;;;;;;;;;4994858;28;20005;-78
2022/09/01 00:17:25;;;;;;;;;;;;;;;;;;4977432;28;19957;-78
2022/09/01 00:19:50;;;;;;;;;;;;;;;;;;4989354;28;19920;-77
2022/09/01 00:22:16;;;;;;;;;;;;;;;;;;4990139;28;19933;-78
2022/09/01 00:24:41;;;;;;;;;;;;;;;;;;4990277;28;20448;-77
2022/09/01 00:27:07;;;;;;;;;;;;;;;;;;4974055;28;19914;-78
2022/09/01 00:29:32;;;;;;;;;;;;;;;;;;4973697;28;19914;-77
2022/09/01 00:31:58;;;;;;;;;;;;;;;;;;4974993;28;20052;-77
2022/09/01 00:34:23;;;;;;;;;;;;;;;;;;4989655;28;20397;-78
2022/09/01 00:36:49;;;;;;;;;;;;;;;;;;4989853;28;19997;-77
2022/09/01 00:39:14;;;;;;;;;;;;;;;;;;5005134;28;20008;-79
2022/09/01 00:41:41;;;;;;;;;;;;;;;;;;4993045;28;20296;-78
2022/09/01 00:44:07;;;;;;;;;;;;;;;;;;4993789;28;19953;-77
2022/09/01 00:46:32;;;;;;;;;;;;;;;;;;4992947;28;19964;-78
2022/09/01 00:48:58;;;;;;;;;;;;;;;;;;4994097;28;19960;-78
2022/09/01 00:51:23;;;;;;;;;;;;;;;;;;4993919;28;19920;-78
2022/09/01 00:53:49;;;;;;;;;;;;;;;;;;4976716;28;19914;-78
2022/09/01 00:56:14;;;;;;;;;;;;;;;;;;4975959;28;19961;-79
2022/09/01 00:58:39;;;;;;;;;;;;;;;;;;4973339;28;20013;-81
2022/09/01 01:01:05;;;;;;;;;;;;;;;;;;4957201;28;20049;-77
2022/09/01 01:03:30;;;;;;;;;;;;;;;;;;4974397;28;20258;-77
2022/09/01 01:05:56;;;;;;;;;;;;;;;;;;4972604;28;19925;-78
2022/09/01 01:08:26;;;;;;;;;;;;;;;;;;4974471;28;19980;-79
2022/09/01 01:10:52;;;;;;;;;;;;;;;;;;4974326;28;19968;-78
2022/09/01 01:13:18;;;;;;;;;;;;;;;;;;4982469;28;19921;-77
2022/09/01 01:15:44;;;;;;;;;;;;;;;;;;4993660;28;19920;-78
2022/09/01 01:18:09;;;;;;;;;;;;;;;;;;4993675;28;19914;-77
2022/09/01 01:23:19;;;;;;;;;;;;;;;;;;4993783;28;19914;-78
2022/09/01 01:25:44;;;;;;;;;;;;;;;;;;4993699;28;20043;-78
2022/09/01 01:28:11;;;;;;;;;;;;;;;;;;4976348;28;20422;-77
2022/09/01 01:30:38;;;;;;;;;;;;;;;;;;4993717;28;20072;-77
2022/09/01 01:33:03;;;;;;;;;;;;;;;;;;4976080;28;20380;-79
2022/09/01 01:35:30;;;;;;;;;;;;;;;;;;4976491;28;19914;-78
2022/09/01 01:37:56;;;;;;;;;;;;;;;;;;4992328;28;20550;-79
2022/09/01 01:40:21;;;;;;;;;;;;;;;;;;4991871;28;19917;-79
2022/09/01 01:42:47;;;;;;;;;;;;;;;;;;4975633;28;20385;-78
2022/09/01 01:45:15;;;;;;;;;;;;;;;;;;4991607;28;22610;-77
2022/09/01 01:47:41;;;;;;;;;;;;;;;;;;4992135;28;19914;-78
2022/09/01 01:50:08;;;;;;;;;;;;;;;;;;4975712;28;20364;-79
2022/09/01 01:52:34;;;;;;;;;;;;;;;;;;4993095;28;19945;-78
2022/09/01 01:54:59;;;;;;;;;;;;;;;;;;4993745;28;19957;-81
2022/09/01 01:57:30;;;;;;;;;;;;;;;;;;4992484;28;19914;-80
2022/09/01 01:59:56;;;;;;;;;;;;;;;;;;4992590;28;19914;-78
2022/09/01 02:02:21;;;;;;;;;;;;;;;;;;4960151;28;19937;-79
2022/09/01 02:04:47;;;;;;;;;;;;;;;;;;4972701;28;19918;-79
2022/09/01 02:07:14;;;;;;;;;;;;;;;;;;4972692;28;19921;-78
2022/09/01 02:09:39;;;;;;;;;;;;;;;;;;4972643;28;19914;-78
2022/09/01 02:12:06;;;;;;;;;;;;;;;;;;4972036;28;19914;-78
2022/09/01 02:14:32;;;;;;;;;;;;;;;;;;4972832;28;19933;-79
2022/09/01 02:17:00;;;;;;;;;;;;;;;;;;4985342;28;19918;-78
2022/09/01 02:19:26;;;;;;;;;;;;;;;;;;4996072;28;19917;-78
2022/09/01 02:21:54;;;;;;;;;;;;;;;;;;4979683;28;20293;-79
2022/09/01 02:24:20;;;;;;;;;;;;;;;;;;4998181;28;19914;-78
2022/09/01 02:26:46;;;;;;;;;;;;;;;;;;5003339;28;19964;-77
2022/09/01 02:29:16;;;;;;;;;;;;;;;;;;4986961;28;19990;-80
2022/09/01 02:31:42;;;;;;;;;;;;;;;;;;4986638;28;19914;-78
2022/09/01 02:34:12;;;;;;;;;;;;;;;;;;5002049;28;19920;-77
2022/09/01 02:36:43;;;;;;;;;;;;;;;;;;4995302;28;19914;-78
2022/09/01 02:39:10;;;;;;;;;;;;;;;;;;4995550;28;19918;-78
2022/09/01 02:41:35;;;;;;;;;;;;;;;;;;4979373;28;20010;-79
2022/09/01 02:44:01;;;;;;;;;;;;;;;;;;4978833;28;19999;-79
2022/09/01 02:46:28;;;;;;;;;;;;;;;;;;4994955;28;19972;-78
2022/09/01 02:48:53;;;;;;;;;;;;;;;;;;4998638;28;19964;-79
2022/09/01 02:51:19;;;;;;;;;;;;;;;;;;4979925;28;19925;-80
2022/09/01 02:53:46;;;;;;;;;;;;;;;;;;4978870;28;19918;-79
2022/09/01 02:56:12;;;;;;;;;;;;;;;;;;4963702;28;19914;-79
2022/09/01 02:58:44;;;;;;;;;;;;;;;;;;4979003;28;19918;-80
2022/09/01 03:01:10;;;;;;;;;;;;;;;;;;4963239;28;19925;-79
2022/09/01 03:03:36;;;;;;;;;;;;;;;;;;4977824;28;19914;-79
2022/09/01 03:06:03;;;;;;;;;;;;;;;;;;4985406;28;20385;-81
2022/09/01 03:08:33;;;;;;;;;;;;;;;;;;4994861;28;19909;-77
2022/09/01 03:11:00;;;;;;;;;;;;;;;;;;4994670;28;19945;-77
2022/09/01 03:13:26;;;;;;;;;;;;;;;;;;4978199;28;19917;-78
2022/09/01 03:15:51;;;;;;;;;;;;;;;;;;4978689;28;19961;-78
2022/09/01 03:18:20;;;;;;;;;;;;;;;;;;4994385;28;19917;-78
2022/09/01 03:20:45;;;;;;;;;;;;;;;;;;4977886;28;19917;-78
2022/09/01 03:23:13;;;;;;;;;;;;;;;;;;4994181;28;19921;-77
2022/09/01 03:25:39;;;;;;;;;;;;;;;;;;4994242;28;19918;-79
2022/09/01 03:28:04;;;;;;;;;;;;;;;;;;4977774;28;19914;-79
2022/09/01 03:30:30;;;;;;;;;;;;;;;;;;4994154;28;19933;-78
2022/09/01 03:32:55;;;;;;;;;;;;;;;;;;4977983;28;19925;-77
2022/09/01 03:35:21;;;;;;;;;;;;;;;;;;4962328;28;19917;-78
2022/09/01 03:37:47;;;;;;;;;;;;;;;;;;4993741;28;19918;-76
2022/09/01 03:40:17;;;;;;;;;;;;;;;;;;4977678;28;19940;-79
2022/09/01 03:42:42;;;;;;;;;;;;;;;;;;4977934;28;19914;-77
2022/09/01 03:45:08;;;;;;;;;;;;;;;;;;4993931;28;19916;-80
2022/09/01 03:47:38;;;;;;;;;;;;;;;;;;4978089;28;19921;-77
2022/09/01 03:50:03;;;;;;;;;;;;;;;;;;4995134;28;20052;-78
2022/09/01 03:52:29;;;;;;;;;;;;;;;;;;4977787;28;19917;-80
2022/09/01 03:54:54;;;;;;;;;;;;;;;;;;4993463;28;19914;-79
2022/09/01 03:57:20;;;;;;;;;;;;;;;;;;4977650;28;19921;-77
2022/09/01 03:59:45;;;;;;;;;;;;;;;;;;4993948;28;20008;-77
2022/09/01 04:02:11;;;;;;;;;;;;;;;;;;4977454;28;20441;-80
2022/09/01 04:04:37;;;;;;;;;;;;;;;;;;4993780;28;19914;-79
2022/09/01 04:07:02;;;;;;;;;;;;;;;;;;4993962;28;20289;-79
2022/09/01 04:09:28;;;;;;;;;;;;;;;;;;4972962;28;19938;-79
2022/09/01 04:11:54;;;;;;;;;;;;;;;;;;4958298;28;20382;-79
2022/09/01 04:14:20;;;;;;;;;;;;;;;;;;4974006;28;20378;-79
2022/09/01 04:19:35;;;;;;;;;;;;;;;;;;4974091;28;19915;-79
2022/09/01 04:22:00;;;;;;;;;;;;;;;;;;4973853;28;19975;-81
2022/09/01 04:24:35;;;;;;;;;;;;;;;;;;4958014;28;19921;-78
2022/09/01 04:27:01;;;;;;;;;;;;;;;;;;4981089;28;19914;-80
2022/09/01 04:29:26;;;;;;;;;;;;;;;;;;4977234;28;20403;-80
2022/09/01 04:31:52;;;;;;;;;;;;;;;;;;4993230;28;20352;-80
2022/09/01 04:34:18;;;;;;;;;;;;;;;;;;4976897;28;19996;-78
2022/09/01 04:36:44;;;;;;;;;;;;;;;;;;4993128;28;20480;-78
2022/09/01 04:39:11;;;;;;;;;;;;;;;;;;4976885;28;20431;-78
2022/09/01 04:41:37;;;;;;;;;;;;;;;;;;4991757;28;19922;-79
2022/09/01 04:44:03;;;;;;;;;;;;;;;;;;4992435;28;20381;-80
2022/09/01 04:46:31;;;;;;;;;;;;;;;;;;4992789;28;19921;-77
2022/09/01 04:48:57;;;;;;;;;;;;;;;;;;4992956;28;19922;-79
2022/09/01 04:51:23;;;;;;;;;;;;;;;;;;4993817;28;19914;-79
2022/09/01 04:53:52;;;;;;;;;;;;;;;;;;4992141;28;19976;-77
2022/09/01 04:56:18;;;;;;;;;;;;;;;;;;4992565;28;20381;-76
2022/09/01 04:58:45;;;;;;;;;;;;;;;;;;4976602;28;19969;-79
2022/09/01 05:01:11;;;;;;;;;;;;;;;;;;4957294;28;19922;-77
2022/09/01 05:03:36;;;;;;;;;;;;;;;;;;4972667;28;20001;-77
2022/09/01 05:06:33;;;;;;;;;;;;;;;;;;4977322;28;19984;-79
2022/09/01 05:08:58;;;;;;;;;;;;;;;;;;4972692;28;19914;-82
2022/09/01 05:11:47;;;;;;;;;;;;;;;;;;4972996;28;19961;-79
2022/09/01 05:14:21;;;;;;;;;;;;;;;;;;4974107;28;19965;-78
2022/09/01 05:16:47;;;;;;;;;;;;;;;;;;4980967;28;19997;-77
2022/09/01 05:19:16;;;;;;;;;;;;;;;;;;4991909;28;19922;-78
2022/09/01 05:21:44;;;;;;;;;;;;;;;;;;4992102;28;19918;-79
2022/09/01 05:24:10;;;;;;;;;;;;;;;;;;4991922;28;19913;-81
2022/09/01 05:26:39;;;;;;;;;;;;;;;;;;4992399;28;19960;-78
2022/09/01 05:29:09;;;;;;;;;;;;;;;;;;4992044;28;19928;-79
2022/09/01 05:31:36;;;;;;;;;;;;;;;;;;4991976;28;19933;-78
2022/09/01 05:34:02;;;;;;;;;;;;;;;;;;4991702;28;19917;-80
2022/09/01 05:36:32;;;;;;;;;;;;;;;;;;4991834;28;19913;-78
2022/09/01 05:38:57;;;;;;;;;;;;;;;;;;4992869;28;19918;-78
2022/09/01 05:41:23;;;;;;;;;;;;;;;;;;4991659;28;19952;-77
2022/09/01 05:43:50;;;;;;;;;;;;;;;;;;4991681;28;19913;-78
2022/09/01 05:46:16;;;;;;;;;;;;;;;;;;4991387;28;20020;-79
2022/09/01 05:48:42;;;;;;;;;;;;;;;;;;4964513;28;19916;-76
2022/09/01 05:51:08;;;;;;;;;;;;;;;;;;4955878;28;20001;-77
2022/09/01 05:53:33;;;;;;;;;;;;;;;;;;4955706;28;19945;-77
2022/09/01 05:55:58;;;;;;;;;;;;;;;;;;4956382;28;19914;-78
2022/09/01 05:58:24;;;;;;;;;;;;;;;;;;4972303;28;20409;-77
2022/09/01 06:00:52;;;;;;;;;;;;;;;;;;4955756;28;19981;-80
2022/09/01 06:03:20;;;;;;;;;;;;;;;;;;4956831;28;21452;-78
2022/09/01 06:05:47;;;;;;;;;;;;;;;;;;4972648;28;19922;-79
2022/09/01 06:08:13;;;;;;;;;;;;;;;;;;4988108;28;19914;-81
2022/09/01 06:10:40;;;;;;;;;;;;;;;;;;4988188;28;19918;-82
2022/09/01 06:13:06;;;;;;;;;;;;;;;;;;4988305;28;20008;-80
2022/09/01 06:15:31;;;;;;;;;;;;;;;;;;4988211;28;19956;-79
2022/09/01 06:17:57;;;;;;;;;;;;;;;;;;4988695;28;19961;-79
2022/09/01 06:20:23;;;;;;;;;;;;;;;;;;4975418;28;19914;-81
2022/09/01 06:22:48;;;;;;;;;;;;;;;;;;4992570;28;19914;-78
2022/09/01 06:25:16;;;;;;;;;;;;;;;;;;4991447;28;19937;-80
2022/09/01 06:27:43;;;;;;;;;;;;;;;;;;4991824;28;19921;-79
2022/09/01 06:30:19;;;;;;;;;;;;;;;;;;4975526;28;20408;-78
2022/09/01 06:32:50;;;;;;;;;;;;;;;;;;4975611;28;19921;-80
2022/09/01 06:35:16;;;;;;;;;;;;;;;;;;4955601;28;20396;-78
2022/09/01 06:37:42;;;;;;;;;;;;;;;;;;4971852;28;19911;-79
2022/09/01 06:40:15;;;;;;;;;;;;;;;;;;4973339;28;19974;-91
2022/09/01 06:42:42;;;;;;;;;;;;;;;;;;4972215;28;19925;-88
2022/09/01 06:45:09;;;;;;;;;;;;;;;;;;4972261;28;19934;-90
2022/09/01 06:47:34;;;;;;;;;;;;;;;;;;4972759;28;20357;-88
2022/09/01 06:50:00;;;;;;;;;;;;;;;;;;4981743;28;19914;-90
2022/09/01 06:52:26;;;;;;;;;;;;;;;;;;4991617;28;20413;-89
2022/09/01 06:54:53;;;;;;;;;;;;;;;;;;4959379;28;19917;-89
2022/09/01 06:57:18;;;;;;;;;;;;;;;;;;4959924;28;19954;-95
2022/09/01 06:59:44;;;;;;;;;;;;;;;;;;4975288;28;19968;-91
2022/09/01 07:02:15;;;;;;;;;;;;;;;;;;4990770;28;20312;-91
2022/09/01 07:05:06;;;;;;;;;;;;;;;;;;4994826;28;19948;-90
2022/09/01 07:07:33;;;;;;;;;;;;;;;;;;4995427;28;19968;-91
2022/09/01 07:10:21;;;;;;;;;;;;;;;;;;4995765;28;19922;-88
2022/09/01 07:12:51;;;;;;;;;;;;;;;;;;4995169;28;20394;-89
2022/09/01 07:15:18;;;;;;;;;;;;;;;;;;4979359;28;19920;-89
2022/09/01 07:17:47;;;;;;;;;;;;;;;;;;4994953;28;19920;-90
2022/09/01 07:20:14;;;;;;;;;;;;;;;;;;4996822;28;20393;-88
2022/09/01 07:22:40;;;;;;;;;;;;;;;;;;4977805;28;19918;-90
2022/09/01 07:25:11;;;;;;;;;;;;;;;;;;4979259;28;19914;-89
2022/09/01 07:27:51;;;;;;;;;;;;;;;;;;4965735;28;19914;-91
2022/09/01 07:30:17;;;;;;;;;;;;;;;;;;4996343;28;19925;-88
2022/09/01 07:32:43;;;;;;;;;;;;;;;;;;4979274;28;19913;-88
2022/09/01 07:35:09;;;;;;;;;;;;;;;;;;4979023;28;19920;-91
2022/09/01 07:37:36;;;;;;;;;;;;;;;;;;4995499;28;20008;-90
2022/09/01 07:40:03;;;;;;;;;;;;;;;;;;4994205;28;19913;-89
2022/09/01 07:42:29;;;;;;;;;;;;;;;;;;4995158;28;20381;-89
2022/09/01 07:45:13;;;;;;;;;;;;;;;;;;4997087;28;19920;-94
2022/09/01 07:47:44;;;;;;;;;;;;;;;;;;4965974;28;19921;-89
2022/09/01 07:50:11;;;;;;;;;;;;;;;;;;4994730;28;19914;-93
2022/09/01 07:52:39;;;;;;;;;;;;;;;;;;4997227;28;20374;-96
2022/09/01 07:55:04;;;;;;;;;;;;;;;;;;4978372;28;19914;-78
2022/09/01 07:57:30;;;;;;;;;;;;;;;;;;4979681;28;19915;-81
2022/09/01 07:59:56;;;;;;;;;;;;;;;;;;4962577;28;19914;-83
2022/09/01 08:02:42;;;;;;;;;;;;;;;;;;4994631;28;19924;-85
2022/09/01 08:05:08;;;;;;;;;;;;;;;;;;4992514;28;19917;-79
2022/09/01 08:07:34;;;;;;;;;;;;;;;;;;4977478;28;19913;-81
2022/09/01 08:10:00;;;;;;;;;;;;;;;;;;4976874;28;19925;-78
2022/09/01 08:12:26;;;;;;;;;;;;;;;;;;4993032;28;19917;-78
2022/09/01 08:14:52;;;;;;;;;;;;;;;;;;4976734;28;20377;-81
2022/09/01 08:17:18;;;;;;;;;;;;;;;;;;4977083;28;20419;-77
2022/09/01 08:19:45;;;;;;;;;;;;;;;;;;4992745;28;20400;-81
2022/09/01 08:22:22;;;;;;;;;;;;;;;;;;4977905;28;19946;-82
2022/09/01 08:24:54;;;;;;;;;;;;;;;;;;4978451;28;19920;-76
2022/09/01 08:27:20;;;;;;;;;;;;;;;;;;4977154;28;19914;-76
2022/09/01 08:29:45;;;;;;;;;;;;;;;;;;4994182;28;19917;-77
2022/09/01 08:32:11;;;;;;;;;;;;;;;;;;4992909;28;19998;-78
2022/09/01 08:34:37;;;;;;;;;;;;;;;;;;4976676;28;20453;-76
2022/09/01 08:37:03;;;;;;;;;;;;;;;;;;4987015;28;19918;-77
2022/09/01 08:39:29;;;;;;;;;;;;;;;;;;4974872;28;19945;-76
2022/09/01 08:41:54;;;;;;;;;;;;;;;;;;4973423;28;19967;-76
2022/09/01 08:44:20;;;;;;;;;;;;;;;;;;4974088;28;20005;-78
2022/09/01 08:46:45;;;;;;;;;;;;;;;;;;4974144;28;19914;-77
2022/09/01 08:49:12;;;;;;;;;;;;;;;;;;4974035;28;19914;-78
2022/09/01 08:52:04;;;;;;;;;;;;;;;;;;4966449;28;20393;-78
2022/09/01 08:54:29;;;;;;;;;;;;;;;;;;4976273;28;19922;-77
2022/09/01 08:56:55;;;;;;;;;;;;;;;;;;4992948;28;19917;-78
2022/09/01 08:59:35;;;;;;;;;;;;;;;;;;4993143;28;19957;-76
2022/09/01 09:02:14;;;;;;;;;;;;;;;;;;4993632;28;20420;-77
2022/09/01 09:04:40;;;;;;;;;;;;;;;;;;4976119;28;19992;-76
2022/09/01 09:07:05;;;;;;;;;;;;;;;;;;4993386;28;20345;-78
2022/09/01 09:09:31;;;;;;;;;;;;;;;;;;4993175;28;19921;-77
2022/09/01 09:11:57;;;;;;;;;;;;;;;;;;4992781;28;19972;-78
2022/09/01 09:14:23;;;;;;;;;;;;;;;;;;4975759;28;19925;-77
2022/09/01 09:16:49;;;;;;;;;;;;;;;;;;4976040;28;19953;-77
2022/09/01 09:19:14;;;;;;;;;;;;;;;;;;4993189;28;19917;-77
2022/09/01 09:21:39;;;;;;;;;;;;;;;;;;4991772;28;20337;-78
2022/09/01 09:24:05;;;;;;;;;;;;;;;;;;4975846;28;20430;-78
2022/09/01 09:26:30;;;;;;;;;;;;;;;;;;4992411;28;19917;-76
2022/09/01 09:28:56;;;;;;;;;;;;;;;;;;4992215;28;19921;-77
2022/09/01 09:31:21;;;;;;;;;;;;;;;;;;4975921;28;20053;-77
2022/09/01 09:33:46;;;;;;;;;;;;;;;;;;4993293;28;19925;-78
2022/09/01 09:36:12;;;;;;;;;;;;;;;;;;4992197;28;20274;-78
2022/09/01 09:38:37;;;;;;;;;;;;;;;;;;4991708;28;20013;-77
2022/09/01 09:41:03;;;;;;;;;;;;;;;;;;4959631;28;19926;-76
2022/09/01 09:43:28;;;;;;;;;;;;;;;;;;4991131;28;19921;-75
2022/09/01 09:45:53;;;;;;;;;;;;;;;;;;4991549;28;19913;-76
2022/09/01 09:48:22;;;;;;;;;;;;;;;;;;4975528;28;19913;-75
2022/09/01 09:50:47;;;;;;;;;;;;;;;;;;4992894;28;20004;-75
2022/09/01 09:53:13;;;;;;;;;;;;;;;;;;4992790;28;20293;-76
2022/09/01 09:55:39;;;;;;;;;;;;;;;;;;4991526;28;19922;-76
2022/09/01 09:58:04;;;;;;;;;;;;;;;;;;4975722;28;19976;-76
2022/09/01 10:00:29;;;;;;;;;;;;;;;;;;4992669;28;19914;-77
2022/09/01 10:02:55;;;;;;;;;;;;;;;;;;4971331;28;20459;-78
2022/09/01 10:05:20;;;;;;;;;;;;;;;;;;4973531;28;20004;-79
2022/09/01 10:07:46;;;;;;;;;;;;;;;;;;4988603;28;19914;-77
2022/09/01 10:10:11;;;;;;;;;;;;;;;;;;4973300;28;20281;-76
2022/09/01 10:15:09;;;;;;;;;;;;;;;;;;4951167;28;19938;-78
2022/09/01 10:17:34;;;;;;;;;;;;;;;;;;4936678;29;20013;-77
2022/09/01 10:20:07;;;;;;;;;;;;;;;;;;4951790;28;19953;-78
2022/09/01 10:22:32;;;;;;;;;;;;;;;;;;4952411;28;19931;-78
2022/09/01 10:24:59;;;;;;;;;;;;;;;;;;4952403;29;19914;-78
2022/09/01 10:27:24;;;;;;;;;;;;;;;;;;4920573;28;19946;-77
2022/09/01 10:29:50;;;;;;;;;;;;;;;;;;4936693;29;20341;-78
2022/09/01 10:32:15;;;;;;;;;;;;;;;;;;4953756;29;19915;-79
2022/09/01 10:34:41;;;;;;;;;;;;;;;;;;4953473;28;20307;-78
2022/09/01 10:37:06;;;;;;;;;;;;;;;;;;4926243;29;19922;-80
2022/09/01 10:39:32;;;;;;;;;;;;;;;;;;4921497;29;20327;-78
2022/09/01 10:41:57;;;;;;;;;;;;;;;;;;4921829;29;19918;-80
2022/09/01 10:44:23;;;;;;;;;;;;;;;;;;4921388;29;20327;-78
2022/09/01 10:46:48;;;;;;;;;;;;;;;;;;4937051;29;19919;-79
2022/09/01 10:49:14;;;;;;;;;;;;;;;;;;4921482;29;19914;-79
2022/09/01 10:51:39;;;;;;;;;;;;;;;;;;4938384;29;19911;-82
2022/09/01 10:54:05;;;;;;;;;;;;;;;;;;4934052;29;20001;-80
2022/09/01 10:56:31;;;;;;;;;;;;;;;;;;4924409;29;20393;-79
2022/09/01 10:58:56;;;;;;;;;;;;;;;;;;4957274;28;19915;-80
2022/09/01 11:01:23;;;;;;;;;;;;;;;;;;4924013;29;19946;-81
2022/09/01 11:03:49;;;;;;;;;;;;;;;;;;4924192;29;19914;-80
2022/09/01 11:06:15;;;;;;;;;;;;;;;;;;4940105;29;19914;-80
2022/09/01 11:08:41;;;;;;;;;;;;;;;;;;4920865;29;19923;-80
2022/09/01 11:11:06;;;;;;;;;;;;;;;;;;4920651;29;19969;-80
2022/09/01 11:13:31;;;;;;;;;;;;;;;;;;4937689;29;19923;-80
2022/09/01 11:15:58;;;;;;;;;;;;;;;;;;4938095;29;19921;-80
2022/09/01 11:18:25;;;;;;;;;;;;;;;;;;4920774;29;19922;-80
2022/09/01 11:20:51;;;;;;;;;;;;;;;;;;4904991;29;19919;-80
2022/09/01 11:23:18;;;;;;;;;;;;;;;;;;4936262;29;19970;-80
2022/09/01 11:25:43;;;;;;;;;;;;;;;;;;4936173;29;19965;-80
2022/09/01 11:28:09;;;;;;;;;;;;;;;;;;4936278;29;19919;-79
2022/09/01 11:30:35;;;;;;;;;;;;;;;;;;4937505;29;19911;-79
2022/09/01 11:33:01;;;;;;;;;;;;;;;;;;4920019;29;19915;-79
2022/09/01 11:35:26;;;;;;;;;;;;;;;;;;4920300;29;19915;-79
2022/09/01 11:37:52;;;;;;;;;;;;;;;;;;4920222;29;20017;-79
2022/09/01 11:40:18;;;;;;;;;;;;;;;;;;4935760;29;19915;-81
2022/09/01 11:42:44;;;;;;;;;;;;;;;;;;4948415;28;19928;-80
2022/09/01 11:45:12;;;;;;;;;;;;;;;;;;4956188;28;20017;-79
2022/09/01 11:47:38;;;;;;;;;;;;;;;;;;4939125;29;19914;-79
2022/09/01 11:50:04;;;;;;;;;;;;;;;;;;4955368;28;19921;-78
2022/09/01 11:52:32;;;;;;;;;;;;;;;;;;4939000;29;19914;-80
2022/09/01 11:54:58;;;;;;;;;;;;;;;;;;4938664;28;19915;-80
2022/09/01 11:57:24;;;;;;;;;;;;;;;;;;4939067;28;20321;-80
2022/09/01 11:59:49;;;;;;;;;;;;;;;;;;4926743;29;19915;-80
2022/09/01 12:02:15;;;;;;;;;;;;;;;;;;4919622;29;19926;-79
2022/09/01 12:04:41;;;;;;;;;;;;;;;;;;4936621;29;19914;-80
2022/09/01 12:07:07;;;;;;;;;;;;;;;;;;4919984;29;19915;-79
2022/09/01 12:09:32;;;;;;;;;;;;;;;;;;4936268;29;19919;-78
2022/09/01 12:11:58;;;;;;;;;;;;;;;;;;4919956;29;19922;-80
2022/09/01 12:14:23;;;;;;;;;;;;;;;;;;4936244;29;19919;-79
2022/09/01 12:16:49;;;;;;;;;;;;;;;;;;4903918;29;19914;-78
2022/09/01 12:19:14;;;;;;;;;;;;;;;;;;4919253;29;19938;-79
2022/09/01 12:21:41;;;;;;;;;;;;;;;;;;4935266;29;19919;-80
2022/09/01 12:24:06;;;;;;;;;;;;;;;;;;4935972;29;19915;-79
2022/09/01 12:26:32;;;;;;;;;;;;;;;;;;4936349;29;19926;-78
2022/09/01 12:28:58;;;;;;;;;;;;;;;;;;4935006;29;20283;-78
2022/09/01 12:31:23;;;;;;;;;;;;;;;;;;4925690;29;19915;-79
2022/09/01 12:33:48;;;;;;;;;;;;;;;;;;4954973;28;19990;-79
2022/09/01 12:36:15;;;;;;;;;;;;;;;;;;4939159;29;19915;-84
2022/09/01 12:38:40;;;;;;;;;;;;;;;;;;4938920;28;20441;-84
2022/09/01 12:41:06;;;;;;;;;;;;;;;;;;4956499;28;20005;-87
2022/09/01 12:43:32;;;;;;;;;;;;;;;;;;4923158;29;20005;-83
2022/09/01 12:45:59;;;;;;;;;;;;;;;;;;4938607;29;19914;-81
2022/09/01 12:48:25;;;;;;;;;;;;;;;;;;4915506;29;19915;-83
2022/09/01 12:50:50;;;;;;;;;;;;;;;;;;4920042;29;20014;-83
2022/09/01 12:53:16;;;;;;;;;;;;;;;;;;4918758;29;19914;-84
2022/09/01 12:55:42;;;;;;;;;;;;;;;;;;4919243;29;19918;-84
2022/09/01 12:58:07;;;;;;;;;;;;;;;;;;4935820;29;20319;-82
2022/09/01 13:00:33;;;;;;;;;;;;;;;;;;4935543;29;19914;-83
2022/09/01 13:02:58;;;;;;;;;;;;;;;;;;4935459;29;19915;-85
2022/09/01 13:05:23;;;;;;;;;;;;;;;;;;4938006;29;19979;-85
2022/09/01 13:07:49;;;;;;;;;;;;;;;;;;4954830;28;20004;-84
2022/09/01 13:10:14;;;;;;;;;;;;;;;;;;4955715;28;19921;-82
2022/09/01 13:12:40;;;;;;;;;;;;;;;;;;4937303;28;19922;-82
2022/09/01 13:15:06;;;;;;;;;;;;;;;;;;4937381;29;19918;-82
2022/09/01 13:17:31;;;;;;;;;;;;;;;;;;4937285;29;20366;-82
2022/09/01 13:19:56;;;;;;;;;;;;;;;;;;4941952;29;19947;-83
2022/09/01 13:22:22;;;;;;;;;;;;;;;;;;4924834;29;19947;-81
2022/09/01 13:24:50;;;;;;;;;;;;;;;;;;4919241;29;19970;-83
2022/09/01 13:27:20;;;;;;;;;;;;;;;;;;4919931;29;19922;-83
2022/09/01 13:29:46;;;;;;;;;;;;;;;;;;4919865;29;19915;-81
2022/09/01 13:32:11;;;;;;;;;;;;;;;;;;4935384;29;19937;-82
2022/09/01 13:34:38;;;;;;;;;;;;;;;;;;4918392;29;20303;-82
2022/09/01 13:37:04;;;;;;;;;;;;;;;;;;4934056;29;19919;-82
2022/09/01 13:39:29;;;;;;;;;;;;;;;;;;4935202;29;19922;-81
2022/09/01 13:41:55;;;;;;;;;;;;;;;;;;4918346;29;20461;-83
2022/09/01 13:44:20;;;;;;;;;;;;;;;;;;4918156;29;19915;-84
2022/09/01 13:46:46;;;;;;;;;;;;;;;;;;4935245;29;20074;-82
2022/09/01 13:49:11;;;;;;;;;;;;;;;;;;4917929;29;19915;-82
2022/09/01 13:51:37;;;;;;;;;;;;;;;;;;4918252;29;19923;-82
2022/09/01 13:54:03;;;;;;;;;;;;;;;;;;4919743;29;19965;-82
2022/09/01 13:56:28;;;;;;;;;;;;;;;;;;4921494;29;19997;-83
2022/09/01 13:58:54;;;;;;;;;;;;;;;;;;4921216;29;20014;-84
2022/09/01 14:01:20;;;;;;;;;;;;;;;;;;4921154;29;19944;-82
2022/09/01 14:03:47;;;;;;;;;;;;;;;;;;4920938;29;20183;-83
2022/09/01 14:06:13;;;;;;;;;;;;;;;;;;4921344;29;19922;-82
2022/09/01 14:08:38;;;;;;;;;;;;;;;;;;4931135;29;20353;-81
2022/09/01 14:11:04;;;;;;;;;;;;;;;;;;4918103;29;19915;-82
2022/09/01 14:13:31;;;;;;;;;;;;;;;;;;4917440;29;19923;-82
2022/09/01 14:15:57;;;;;;;;;;;;;;;;;;4917686;29;19915;-83
2022/09/01 14:18:23;;;;;;;;;;;;;;;;;;4917650;29;20021;-84
2022/09/01 14:20:49;;;;;;;;;;;;;;;;;;4901920;29;19919;-82
2022/09/01 14:23:15;;;;;;;;;;;;;;;;;;4933296;29;19918;-81
2022/09/01 14:25:41;;;;;;;;;;;;;;;;;;4902337;29;19922;-80
2022/09/01 14:28:06;;;;;;;;;;;;;;;;;;4933510;29;19911;-81
2022/09/01 14:30:32;;;;;;;;;;;;;;;;;;4933470;29;19923;-81
2022/09/01 14:33:01;;;;;;;;;;;;;;;;;;4917859;29;19915;-82
2022/09/01 14:35:26;;;;;;;;;;;;;;;;;;4917698;29;19915;-81
2022/09/01 14:37:52;;;;;;;;;;;;;;;;;;4917657;29;19919;-81
2022/09/01 14:40:18;;;;;;;;;;;;;;;;;;4933368;29;19915;-81
2022/09/01 14:42:45;;;;;;;;;;;;;;;;;;4933256;29;19926;-81
2022/09/01 14:45:11;;;;;;;;;;;;;;;;;;4917736;29;19922;-81
2022/09/01 14:47:36;;;;;;;;;;;;;;;;;;4934575;29;19918;-82
2022/09/01 14:50:02;;;;;;;;;;;;;;;;;;4934573;29;19925;-82
2022/09/01 14:52:29;;;;;;;;;;;;;;;;;;4917264;29;20498;-82
2022/09/01 14:54:54;;;;;;;;;;;;;;;;;;4935263;29;20005;-81
2022/09/01 14:57:20;;;;;;;;;;;;;;;;;;4934879;29;20027;-83
2022/09/01 14:59:45;;;;;;;;;;;;;;;;;;4941367;29;20257;-81
2022/09/01 15:02:11;;;;;;;;;;;;;;;;;;4954497;29;19918;-80
2022/09/01 15:04:36;;;;;;;;;;;;;;;;;;4953887;28;19914;-81
2022/09/01 15:07:05;;;;;;;;;;;;;;;;;;4936991;29;19918;-84
2022/09/01 15:09:31;;;;;;;;;;;;;;;;;;4954887;28;20378;-83
2022/09/01 15:11:56;;;;;;;;;;;;;;;;;;4937343;29;19939;-83
2022/09/01 15:14:21;;;;;;;;;;;;;;;;;;4937187;29;19922;-84
2022/09/01 15:16:47;;;;;;;;;;;;;;;;;;4936984;29;19950;-81
2022/09/01 15:19:13;;;;;;;;;;;;;;;;;;4935881;29;19942;-83
2022/09/01 15:21:38;;;;;;;;;;;;;;;;;;4917870;29;20311;-83
2022/09/01 15:24:04;;;;;;;;;;;;;;;;;;4935053;29;19915;-83
2022/09/01 15:26:29;;;;;;;;;;;;;;;;;;4921350;29;19918;-82
2022/09/01 15:28:58;;;;;;;;;;;;;;;;;;4921348;29;19915;-83
2022/09/01 15:31:26;;;;;;;;;;;;;;;;;;4905758;29;19915;-83
2022/09/01 15:33:51;;;;;;;;;;;;;;;;;;4938194;29;20322;-82
2022/09/01 15:36:17;;;;;;;;;;;;;;;;;;4953796;28;19920;-82
2022/09/01 15:38:43;;;;;;;;;;;;;;;;;;4925450;29;20050;-85
2022/09/01 15:41:09;;;;;;;;;;;;;;;;;;4923544;29;19962;-85
2022/09/01 15:43:35;;;;;;;;;;;;;;;;;;4940305;29;19914;-83
2022/09/01 15:46:01;;;;;;;;;;;;;;;;;;4924488;29;19918;-83
2022/09/01 15:48:27;;;;;;;;;;;;;;;;;;4925277;29;19914;-81
2022/09/01 15:50:53;;;;;;;;;;;;;;;;;;4958520;28;20270;-81
2022/09/01 15:53:19;;;;;;;;;;;;;;;;;;4926697;29;19997;-83
2022/09/01 15:55:44;;;;;;;;;;;;;;;;;;4943095;29;19961;-82
2022/09/01 15:58:11;;;;;;;;;;;;;;;;;;4928917;29;19953;-82
2022/09/01 16:00:37;;;;;;;;;;;;;;;;;;4945243;28;19914;-81
2022/09/01 16:03:02;;;;;;;;;;;;;;;;;;4930647;29;20013;-82
2022/09/01 16:05:28;;;;;;;;;;;;;;;;;;4934306;29;19938;-87
2022/09/01 16:07:54;;;;;;;;;;;;;;;;;;4949884;29;19922;-82
2022/09/01 16:10:20;;;;;;;;;;;;;;;;;;4968388;28;19915;-84
2022/09/01 16:12:50;;;;;;;;;;;;;;;;;;4952732;28;19914;-81
2022/09/01 16:15:16;;;;;;;;;;;;;;;;;;4982990;23;19929;-75
2022/09/01 16:17:42;;;;;;;;;;;;;;;;;;4952464;28;19914;-77
2022/09/01 16:20:09;;;;;;;;;;;;;;;;;;4989964;28;19946;-75
2022/09/01 16:22:35;;;;;;;;;;;;;;;;;;4973701;28;19923;-78
2022/09/01 16:25:00;;;;;;;;;;;;;;;;;;4973866;28;20005;-76
2022/09/01 16:27:26;;;;;;;;;;;;;;;;;;4957740;28;19925;-77
2022/09/01 16:29:51;;;;;;;;;;;;;;;;;;4974037;28;20356;-74
2022/09/01 16:32:20;;;;;;;;;;;;;;;;;;4974827;28;20327;-77
2022/09/01 16:34:48;;;;;;;;;;;;;;;;;;4983719;28;19921;-74
2022/09/01 16:37:13;;;;;;;;;;;;;;;;;;4998826;28;19936;-82
2022/09/01 16:39:39;;;;;;;;;;;;;;;;;;4980672;28;20449;-82
2022/09/01 16:42:04;;;;;;;;;;;;;;;;;;4993759;28;20017;-84
2022/09/01 16:44:30;;;;;;;;;;;;;;;;;;4984369;28;20002;-83
2022/09/01 16:46:55;;;;;;;;;;;;;;;;;;4977738;28;20349;-80
2022/09/01 16:49:20;;;;;;;;;;;;;;;;;;4995284;28;19909;-82